Terminal Aerodrome Forecast
Issued by NWS Midland/Odessa, TX

Home | Current Version | Previous Version | Text Only | Print | Product List | Glossary On
Versions: 1 2 3 4 5 6 7 8 9 10 11 12 13 14 15 16 17 18
000
FTUS44 KMAF 181900 AAA
TAFMAF
TAF AMD
KMAF 181951Z 1820/1918 05011KT P6SM SCT025 BKN100
      TEMPO 1820/1824 VRB10G25KT 3SM TSRA BKN015 BKN040CB
     FM191000 09006KT P6SM OVC015=

USA.gov is the U.S. government's official web portal to all federal, state and local government web resources and services.